sensor_id;sensor_type;location;lat;lon;timestamp;P1;durP1;ratioP1;P2;durP2;ratioP2
71671;SDS011;67659;45.554;11.812;2023-08-17T00:01:50;15.63;;;13.30;;
71671;SDS011;67659;45.554;11.812;2023-08-17T00:04:16;16.83;;;12.68;;
71671;SDS011;67659;45.554;11.812;2023-08-17T00:06:42;15.15;;;12.73;;
71671;SDS011;67659;45.554;11.812;2023-08-17T00:09:07;14.13;;;12.23;;
71671;SDS011;67659;45.554;11.812;2023-08-17T00:11:34;17.35;;;12.95;;
71671;SDS011;67659;45.554;11.812;2023-08-17T00:14:01;26.80;;;13.70;;
71671;SDS011;67659;45.554;11.812;2023-08-17T00:16:27;37.00;;;14.25;;
71671;SDS011;67659;45.554;11.812;2023-08-17T00:18:53;63.20;;;15.90;;
71671;SDS011;67659;45.554;11.812;2023-08-17T00:21:19;33.00;;;14.38;;
71671;SDS011;67659;45.554;11.812;2023-08-17T00:23:44;29.63;;;13.75;;
71671;SDS011;67659;45.554;11.812;2023-08-17T00:26:10;21.80;;;13.70;;
71671;SDS011;67659;45.554;11.812;2023-08-17T00:28:36;24.75;;;14.85;;
71671;SDS011;67659;45.554;11.812;2023-08-17T00:31:02;18.55;;;14.55;;
71671;SDS011;67659;45.554;11.812;2023-08-17T00:33:29;20.27;;;14.93;;
71671;SDS011;67659;45.554;11.812;2023-08-17T00:35:55;21.52;;;15.40;;
71671;SDS011;67659;45.554;11.812;2023-08-17T00:38:21;17.70;;;14.50;;
71671;SDS011;67659;45.554;11.812;2023-08-17T00:40:47;19.60;;;14.25;;
71671;SDS011;67659;45.554;11.812;2023-08-17T00:43:13;18.67;;;14.98;;
71671;SDS011;67659;45.554;11.812;2023-08-17T00:45:39;18.73;;;14.67;;
71671;SDS011;67659;45.554;11.812;2023-08-17T00:48:06;17.73;;;15.40;;
71671;SDS011;67659;45.554;11.812;2023-08-17T00:50:33;17.77;;;15.48;;
71671;SDS011;67659;45.554;11.812;2023-08-17T00:53:00;20.33;;;16.48;;
71671;SDS011;67659;45.554;11.812;2023-08-17T00:55:27;20.13;;;17.13;;
71671;SDS011;67659;45.554;11.812;2023-08-17T00:57:53;20.77;;;16.83;;
71671;SDS011;67659;45.554;11.812;2023-08-17T01:00:22;21.00;;;17.00;;
71671;SDS011;67659;45.554;11.812;2023-08-17T01:02:53;21.52;;;16.98;;
71671;SDS011;67659;45.554;11.812;2023-08-17T01:05:19;20.60;;;17.20;;
71671;SDS011;67659;45.554;11.812;2023-08-17T01:07:46;19.27;;;15.40;;
71671;SDS011;67659;45.554;11.812;2023-08-17T01:10:12;19.98;;;15.32;;
71671;SDS011;67659;45.554;11.812;2023-08-17T01:12:42;20.60;;;14.80;;
71671;SDS011;67659;45.554;11.812;2023-08-17T01:15:10;19.10;;;15.70;;
71671;SDS011;67659;45.554;11.812;2023-08-17T01:17:43;16.97;;;14.47;;
71671;SDS011;67659;45.554;11.812;2023-08-17T01:20:22;18.08;;;14.98;;
71671;SDS011;67659;45.554;11.812;2023-08-17T01:22:49;19.35;;;15.20;;
71671;SDS011;67659;45.554;11.812;2023-08-17T01:25:17;19.17;;;15.38;;
71671;SDS011;67659;45.554;11.812;2023-08-17T01:27:46;18.50;;;15.43;;
71671;SDS011;67659;45.554;11.812;2023-08-17T01:30:15;17.63;;;15.07;;
71671;SDS011;67659;45.554;11.812;2023-08-17T01:32:49;18.20;;;14.98;;
71671;SDS011;67659;45.554;11.812;2023-08-17T01:35:31;18.63;;;14.75;;
71671;SDS011;67659;45.554;11.812;2023-08-17T01:38:06;18.30;;;14.20;;
71671;SDS011;67659;45.554;11.812;2023-08-17T01:40:35;16.97;;;13.37;;
71671;SDS011;67659;45.554;11.812;2023-08-17T01:43:01;17.40;;;13.27;;
71671;SDS011;67659;45.554;11.812;2023-08-17T01:45:27;17.02;;;13.90;;
71671;SDS011;67659;45.554;11.812;2023-08-17T01:47:55;16.35;;;13.60;;
71671;SDS011;67659;45.554;11.812;2023-08-17T01:50:21;18.02;;;14.70;;
71671;SDS011;67659;45.554;11.812;2023-08-17T01:52:47;18.77;;;14.57;;
71671;SDS011;67659;45.554;11.812;2023-08-17T01:55:15;17.05;;;14.60;;
71671;SDS011;67659;45.554;11.812;2023-08-17T01:57:41;17.75;;;15.05;;
71671;SDS011;67659;45.554;11.812;2023-08-17T02:00:07;20.50;;;15.37;;
71671;SDS011;67659;45.554;11.812;2023-08-17T02:02:35;17.88;;;15.70;;
71671;SDS011;67659;45.554;11.812;2023-08-17T02:05:02;20.75;;;15.80;;
71671;SDS011;67659;45.554;11.812;2023-08-17T02:07:28;20.58;;;16.27;;
71671;SDS011;67659;45.554;11.812;2023-08-17T02:09:54;18.23;;;16.20;;
71671;SDS011;67659;45.554;11.812;2023-08-17T02:12:19;17.70;;;15.70;;
71671;SDS011;67659;45.554;11.812;2023-08-17T02:14:45;23.60;;;17.77;;
71671;SDS011;67659;45.554;11.812;2023-08-17T02:17:11;18.67;;;16.55;;
71671;SDS011;67659;45.554;11.812;2023-08-17T02:19:37;17.83;;;15.07;;
71671;SDS011;67659;45.554;11.812;2023-08-17T02:22:03;19.70;;;15.05;;
71671;SDS011;67659;45.554;11.812;2023-08-17T02:24:29;17.80;;;15.20;;
71671;SDS011;67659;45.554;11.812;2023-08-17T02:26:55;18.50;;;15.40;;
71671;SDS011;67659;45.554;11.812;2023-08-17T02:29:21;17.50;;;15.13;;
71671;SDS011;67659;45.554;11.812;2023-08-17T02:31:47;21.42;;;17.40;;
71671;SDS011;67659;45.554;11.812;2023-08-17T02:34:13;19.73;;;15.63;;
71671;SDS011;67659;45.554;11.812;2023-08-17T02:36:38;19.10;;;16.02;;
71671;SDS011;67659;45.554;11.812;2023-08-17T02:39:04;20.50;;;15.30;;
71671;SDS011;67659;45.554;11.812;2023-08-17T02:41:30;18.83;;;15.32;;
71671;SDS011;67659;45.554;11.812;2023-08-17T02:43:57;21.27;;;17.45;;
71671;SDS011;67659;45.554;11.812;2023-08-17T02:46:23;20.83;;;17.25;;
71671;SDS011;67659;45.554;11.812;2023-08-17T02:48:49;22.17;;;17.47;;
71671;SDS011;67659;45.554;11.812;2023-08-17T02:51:16;21.48;;;16.85;;
71671;SDS011;67659;45.554;11.812;2023-08-17T02:53:41;19.58;;;16.45;;
71671;SDS011;67659;45.554;11.812;2023-08-17T02:56:07;18.87;;;16.10;;
71671;SDS011;67659;45.554;11.812;2023-08-17T02:58:37;20.40;;;16.45;;
71671;SDS011;67659;45.554;11.812;2023-08-17T03:01:06;18.88;;;15.95;;
71671;SDS011;67659;45.554;11.812;2023-08-17T03:03:35;20.27;;;16.85;;
71671;SDS011;67659;45.554;11.812;2023-08-17T03:06:01;19.52;;;15.77;;
71671;SDS011;67659;45.554;11.812;2023-08-17T03:08:27;22.53;;;17.63;;
71671;SDS011;67659;45.554;11.812;2023-08-17T03:10:55;21.48;;;17.05;;
71671;SDS011;67659;45.554;11.812;2023-08-17T03:13:21;19.08;;;16.50;;
71671;SDS011;67659;45.554;11.812;2023-08-17T03:15:47;20.63;;;16.10;;
71671;SDS011;67659;45.554;11.812;2023-08-17T03:18:13;23.20;;;17.50;;
71671;SDS011;67659;45.554;11.812;2023-08-17T03:20:38;20.97;;;17.70;;
71671;SDS011;67659;45.554;11.812;2023-08-17T03:23:04;18.67;;;16.55;;
71671;SDS011;67659;45.554;11.812;2023-08-17T03:25:33;20.77;;;17.65;;
71671;SDS011;67659;45.554;11.812;2023-08-17T03:27:59;23.23;;;17.40;;
71671;SDS011;67659;45.554;11.812;2023-08-17T03:30:25;21.63;;;17.70;;
71671;SDS011;67659;45.554;11.812;2023-08-17T03:32:51;22.55;;;17.65;;
71671;SDS011;67659;45.554;11.812;2023-08-17T03:35:17;23.83;;;17.45;;
71671;SDS011;67659;45.554;11.812;2023-08-17T03:37:43;20.20;;;16.40;;
71671;SDS011;67659;45.554;11.812;2023-08-17T03:40:09;20.67;;;17.08;;
71671;SDS011;67659;45.554;11.812;2023-08-17T03:42:35;20.45;;;16.75;;
71671;SDS011;67659;45.554;11.812;2023-08-17T03:45:01;21.53;;;18.03;;
71671;SDS011;67659;45.554;11.812;2023-08-17T03:47:27;21.35;;;17.70;;
71671;SDS011;67659;45.554;11.812;2023-08-17T03:49:52;23.98;;;17.20;;
71671;SDS011;67659;45.554;11.812;2023-08-17T03:52:18;20.40;;;17.10;;
71671;SDS011;67659;45.554;11.812;2023-08-17T03:54:44;22.52;;;16.38;;
71671;SDS011;67659;45.554;11.812;2023-08-17T03:57:11;22.10;;;16.15;;
71671;SDS011;67659;45.554;11.812;2023-08-17T03:59:37;18.75;;;16.75;;
71671;SDS011;67659;45.554;11.812;2023-08-17T04:02:03;18.70;;;15.50;;
71671;SDS011;67659;45.554;11.812;2023-08-17T04:04:29;18.70;;;16.13;;
71671;SDS011;67659;45.554;11.812;2023-08-17T04:06:55;20.50;;;16.03;;
71671;SDS011;67659;45.554;11.812;2023-08-17T04:09:20;20.90;;;16.35;;
71671;SDS011;67659;45.554;11.812;2023-08-17T04:11:46;20.13;;;15.37;;
71671;SDS011;67659;45.554;11.812;2023-08-17T04:14:12;20.23;;;15.73;;
71671;SDS011;67659;45.554;11.812;2023-08-17T04:16:39;21.20;;;16.40;;
71671;SDS011;67659;45.554;11.812;2023-08-17T04:19:05;19.17;;;16.40;;
71671;SDS011;67659;45.554;11.812;2023-08-17T04:21:31;19.90;;;15.87;;
71671;SDS011;67659;45.554;11.812;2023-08-17T04:23:56;19.75;;;16.90;;
71671;SDS011;67659;45.554;11.812;2023-08-17T04:26:22;20.30;;;16.47;;
71671;SDS011;67659;45.554;11.812;2023-08-17T04:28:49;17.67;;;15.27;;
71671;SDS011;67659;45.554;11.812;2023-08-17T04:31:15;22.45;;;15.75;;
71671;SDS011;67659;45.554;11.812;2023-08-17T04:33:43;20.50;;;15.63;;
71671;SDS011;67659;45.554;11.812;2023-08-17T04:36:09;18.10;;;14.70;;
71671;SDS011;67659;45.554;11.812;2023-08-17T04:38:35;21.73;;;15.23;;
71671;SDS011;67659;45.554;11.812;2023-08-17T04:41:00;17.13;;;14.60;;
71671;SDS011;67659;45.554;11.812;2023-08-17T04:43:26;18.00;;;14.77;;
71671;SDS011;67659;45.554;11.812;2023-08-17T04:45:52;18.50;;;13.77;;
71671;SDS011;67659;45.554;11.812;2023-08-17T04:48:18;19.00;;;14.55;;
71671;SDS011;67659;45.554;11.812;2023-08-17T04:50:44;18.73;;;14.53;;
71671;SDS011;67659;45.554;11.812;2023-08-17T04:53:10;16.13;;;13.93;;
71671;SDS011;67659;45.554;11.812;2023-08-17T04:55:35;18.40;;;15.23;;
71671;SDS011;67659;45.554;11.812;2023-08-17T04:58:01;19.07;;;15.00;;
71671;SDS011;67659;45.554;11.812;2023-08-17T05:00:27;18.47;;;15.33;;
71671;SDS011;67659;45.554;11.812;2023-08-17T05:02:56;16.70;;;14.57;;
71671;SDS011;67659;45.554;11.812;2023-08-17T05:05:22;18.40;;;14.18;;
71671;SDS011;67659;45.554;11.812;2023-08-17T05:07:49;16.40;;;13.98;;
71671;SDS011;67659;45.554;11.812;2023-08-17T05:10:14;18.23;;;14.13;;
71671;SDS011;67659;45.554;11.812;2023-08-17T05:12:40;20.02;;;14.18;;
71671;SDS011;67659;45.554;11.812;2023-08-17T05:15:06;18.38;;;14.60;;
71671;SDS011;67659;45.554;11.812;2023-08-17T05:17:32;16.33;;;13.33;;
71671;SDS011;67659;45.554;11.812;2023-08-17T05:19:58;18.10;;;13.93;;
71671;SDS011;67659;45.554;11.812;2023-08-17T05:22:24;18.50;;;14.20;;
71671;SDS011;67659;45.554;11.812;2023-08-17T05:24:50;19.23;;;14.07;;
71671;SDS011;67659;45.554;11.812;2023-08-17T05:27:15;16.35;;;13.93;;
71671;SDS011;67659;45.554;11.812;2023-08-17T05:29:41;16.30;;;13.77;;
71671;SDS011;67659;45.554;11.812;2023-08-17T05:32:07;18.65;;;14.35;;
71671;SDS011;67659;45.554;11.812;2023-08-17T05:34:32;15.60;;;13.50;;
71671;SDS011;67659;45.554;11.812;2023-08-17T05:36:58;17.52;;;13.73;;
71671;SDS011;67659;45.554;11.812;2023-08-17T05:39:24;17.52;;;14.57;;
71671;SDS011;67659;45.554;11.812;2023-08-17T05:41:50;17.93;;;14.20;;
71671;SDS011;67659;45.554;11.812;2023-08-17T05:44:15;17.27;;;13.73;;
71671;SDS011;67659;45.554;11.812;2023-08-17T05:46:42;20.00;;;15.60;;
71671;SDS011;67659;45.554;11.812;2023-08-17T05:49:08;17.50;;;14.07;;
71671;SDS011;67659;45.554;11.812;2023-08-17T05:51:34;17.77;;;13.15;;
71671;SDS011;67659;45.554;11.812;2023-08-17T05:53:59;16.60;;;12.87;;
71671;SDS011;67659;45.554;11.812;2023-08-17T05:56:25;16.27;;;12.63;;
71671;SDS011;67659;45.554;11.812;2023-08-17T05:58:51;15.33;;;11.57;;
71671;SDS011;67659;45.554;11.812;2023-08-17T06:01:17;14.93;;;11.25;;
71671;SDS011;67659;45.554;11.812;2023-08-17T06:03:42;14.98;;;11.23;;
71671;SDS011;67659;45.554;11.812;2023-08-17T06:06:09;12.63;;;10.40;;
71671;SDS011;67659;45.554;11.812;2023-08-17T06:08:35;12.85;;;10.52;;
71671;SDS011;67659;45.554;11.812;2023-08-17T06:11:01;18.20;;;10.60;;
71671;SDS011;67659;45.554;11.812;2023-08-17T06:13:26;13.45;;;10.95;;
71671;SDS011;67659;45.554;11.812;2023-08-17T06:15:52;13.43;;;10.43;;
71671;SDS011;67659;45.554;11.812;2023-08-17T06:18:19;13.57;;;9.82;;
71671;SDS011;67659;45.554;11.812;2023-08-17T06:20:45;13.10;;;10.33;;
71671;SDS011;67659;45.554;11.812;2023-08-17T06:23:13;13.90;;;10.50;;
71671;SDS011;67659;45.554;11.812;2023-08-17T06:25:39;13.57;;;11.27;;
71671;SDS011;67659;45.554;11.812;2023-08-17T06:28:05;13.90;;;11.53;;
71671;SDS011;67659;45.554;11.812;2023-08-17T06:30:31;15.77;;;11.60;;
71671;SDS011;67659;45.554;11.812;2023-08-17T06:32:57;16.40;;;11.55;;
71671;SDS011;67659;45.554;11.812;2023-08-17T06:35:24;14.70;;;11.40;;
71671;SDS011;67659;45.554;11.812;2023-08-17T06:37:50;13.60;;;10.37;;
71671;SDS011;67659;45.554;11.812;2023-08-17T06:40:16;12.90;;;10.25;;
71671;SDS011;67659;45.554;11.812;2023-08-17T06:42:42;14.57;;;10.90;;
71671;SDS011;67659;45.554;11.812;2023-08-17T06:45:08;17.53;;;10.43;;
71671;SDS011;67659;45.554;11.812;2023-08-17T06:47:34;14.18;;;9.30;;
71671;SDS011;67659;45.554;11.812;2023-08-17T06:50:00;14.18;;;10.02;;
71671;SDS011;67659;45.554;11.812;2023-08-17T06:52:26;11.45;;;9.80;;
71671;SDS011;67659;45.554;11.812;2023-08-17T06:54:51;11.00;;;8.93;;
71671;SDS011;67659;45.554;11.812;2023-08-17T06:57:17;11.27;;;8.75;;
71671;SDS011;67659;45.554;11.812;2023-08-17T06:59:43;10.80;;;8.68;;
71671;SDS011;67659;45.554;11.812;2023-08-17T07:02:11;10.88;;;8.73;;
71671;SDS011;67659;45.554;11.812;2023-08-17T07:04:37;10.83;;;8.87;;
71671;SDS011;67659;45.554;11.812;2023-08-17T07:07:03;10.73;;;9.07;;
71671;SDS011;67659;45.554;11.812;2023-08-17T07:09:29;13.23;;;9.60;;
71671;SDS011;67659;45.554;11.812;2023-08-17T07:11:54;11.73;;;9.45;;
71671;SDS011;67659;45.554;11.812;2023-08-17T07:14:20;10.73;;;8.67;;
71671;SDS011;67659;45.554;11.812;2023-08-17T07:16:46;10.90;;;9.15;;
71671;SDS011;67659;45.554;11.812;2023-08-17T07:19:12;12.38;;;9.23;;
71671;SDS011;67659;45.554;11.812;2023-08-17T07:21:38;12.82;;;9.60;;
71671;SDS011;67659;45.554;11.812;2023-08-17T07:24:11;13.60;;;9.80;;
71671;SDS011;67659;45.554;11.812;2023-08-17T07:26:38;12.38;;;9.05;;
71671;SDS011;67659;45.554;11.812;2023-08-17T07:29:04;11.80;;;9.45;;
71671;SDS011;67659;45.554;11.812;2023-08-17T07:31:30;11.93;;;9.00;;
71671;SDS011;67659;45.554;11.812;2023-08-17T07:33:58;11.00;;;8.90;;
71671;SDS011;67659;45.554;11.812;2023-08-17T07:36:25;11.73;;;8.98;;
71671;SDS011;67659;45.554;11.812;2023-08-17T07:38:50;11.45;;;9.05;;
71671;SDS011;67659;45.554;11.812;2023-08-17T07:41:16;11.63;;;8.85;;
71671;SDS011;67659;45.554;11.812;2023-08-17T07:43:42;11.63;;;8.67;;
71671;SDS011;67659;45.554;11.812;2023-08-17T07:46:08;10.60;;;8.90;;
71671;SDS011;67659;45.554;11.812;2023-08-17T07:48:34;12.07;;;9.02;;
71671;SDS011;67659;45.554;11.812;2023-08-17T07:51:00;12.13;;;9.10;;
71671;SDS011;67659;45.554;11.812;2023-08-17T07:53:26;12.30;;;9.38;;
71671;SDS011;67659;45.554;11.812;2023-08-17T07:55:51;11.05;;;8.30;;
71671;SDS011;67659;45.554;11.812;2023-08-17T07:58:17;11.00;;;9.30;;
71671;SDS011;67659;45.554;11.812;2023-08-17T08:00:44;11.32;;;8.80;;
71671;SDS011;67659;45.554;11.812;2023-08-17T08:03:09;10.93;;;8.50;;
71671;SDS011;67659;45.554;11.812;2023-08-17T08:05:35;12.97;;;9.30;;
71671;SDS011;67659;45.554;11.812;2023-08-17T08:08:03;11.32;;;9.35;;
71671;SDS011;67659;45.554;11.812;2023-08-17T08:10:30;11.85;;;9.05;;
71671;SDS011;67659;45.554;11.812;2023-08-17T08:12:55;11.73;;;8.90;;
71671;SDS011;67659;45.554;11.812;2023-08-17T08:15:21;10.55;;;8.90;;
71671;SDS011;67659;45.554;11.812;2023-08-17T08:17:47;12.95;;;8.90;;
71671;SDS011;67659;45.554;11.812;2023-08-17T08:20:13;13.57;;;9.68;;
71671;SDS011;67659;45.554;11.812;2023-08-17T08:22:39;11.17;;;8.80;;
71671;SDS011;67659;45.554;11.812;2023-08-17T08:25:05;15.05;;;9.93;;
71671;SDS011;67659;45.554;11.812;2023-08-17T08:27:31;11.30;;;9.18;;
71671;SDS011;67659;45.554;11.812;2023-08-17T08:29:57;13.47;;;9.73;;
71671;SDS011;67659;45.554;11.812;2023-08-17T08:32:23;11.45;;;9.18;;
71671;SDS011;67659;45.554;11.812;2023-08-17T08:34:49;11.73;;;9.25;;
71671;SDS011;67659;45.554;11.812;2023-08-17T08:37:14;13.40;;;9.30;;
71671;SDS011;67659;45.554;11.812;2023-08-17T08:39:51;11.48;;;9.10;;
71671;SDS011;67659;45.554;11.812;2023-08-17T08:42:18;10.82;;;8.98;;
71671;SDS011;67659;45.554;11.812;2023-08-17T08:44:45;11.43;;;9.57;;
71671;SDS011;67659;45.554;11.812;2023-08-17T08:47:12;11.52;;;8.80;;
71671;SDS011;67659;45.554;11.812;2023-08-17T08:49:39;10.80;;;9.27;;
71671;SDS011;67659;45.554;11.812;2023-08-17T08:52:12;12.05;;;9.52;;
71671;SDS011;67659;45.554;11.812;2023-08-17T08:54:44;13.38;;;9.40;;
71671;SDS011;67659;45.554;11.812;2023-08-17T08:57:14;13.07;;;9.05;;
71671;SDS011;67659;45.554;11.812;2023-08-17T08:59:41;10.90;;;9.05;;
71671;SDS011;67659;45.554;11.812;2023-08-17T09:02:12;11.60;;;8.60;;
71671;SDS011;67659;45.554;11.812;2023-08-17T09:04:40;10.95;;;8.40;;
71671;SDS011;67659;45.554;11.812;2023-08-17T09:07:07;11.68;;;9.10;;
71671;SDS011;67659;45.554;11.812;2023-08-17T09:09:35;12.15;;;9.90;;
71671;SDS011;67659;45.554;11.812;2023-08-17T09:12:03;11.05;;;9.25;;
71671;SDS011;67659;45.554;11.812;2023-08-17T09:14:32;10.30;;;8.97;;
71671;SDS011;67659;45.554;11.812;2023-08-17T09:16:58;12.43;;;9.50;;
71671;SDS011;67659;45.554;11.812;2023-08-17T09:19:24;11.93;;;8.77;;
71671;SDS011;67659;45.554;11.812;2023-08-17T09:21:50;11.63;;;9.00;;
71671;SDS011;67659;45.554;11.812;2023-08-17T09:24:16;10.98;;;8.50;;
71671;SDS011;67659;45.554;11.812;2023-08-17T09:26:43;13.05;;;8.75;;
71671;SDS011;67659;45.554;11.812;2023-08-17T09:29:18;11.18;;;8.38;;
71671;SDS011;67659;45.554;11.812;2023-08-17T09:31:46;12.18;;;8.65;;
71671;SDS011;67659;45.554;11.812;2023-08-17T09:34:14;12.47;;;9.37;;
71671;SDS011;67659;45.554;11.812;2023-08-17T09:36:41;12.02;;;8.95;;
71671;SDS011;67659;45.554;11.812;2023-08-17T09:39:07;11.10;;;9.13;;
71671;SDS011;67659;45.554;11.812;2023-08-17T09:41:40;11.20;;;9.32;;
71671;SDS011;67659;45.554;11.812;2023-08-17T09:44:06;10.27;;;8.67;;
71671;SDS011;67659;45.554;11.812;2023-08-17T09:46:33;11.57;;;9.52;;
71671;SDS011;67659;45.554;11.812;2023-08-17T09:49:01;13.32;;;9.18;;
71671;SDS011;67659;45.554;11.812;2023-08-17T09:51:29;10.85;;;8.52;;
71671;SDS011;67659;45.554;11.812;2023-08-17T09:53:56;9.95;;;8.38;;
71671;SDS011;67659;45.554;11.812;2023-08-17T09:56:22;11.57;;;9.40;;
71671;SDS011;67659;45.554;11.812;2023-08-17T09:58:49;10.75;;;8.90;;
71671;SDS011;67659;45.554;11.812;2023-08-17T10:01:15;11.07;;;9.50;;
71671;SDS011;67659;45.554;11.812;2023-08-17T10:03:44;11.60;;;9.05;;
71671;SDS011;67659;45.554;11.812;2023-08-17T10:06:12;10.35;;;8.52;;
71671;SDS011;67659;45.554;11.812;2023-08-17T10:08:42;11.40;;;9.00;;
71671;SDS011;67659;45.554;11.812;2023-08-17T10:11:10;11.40;;;9.30;;
71671;SDS011;67659;45.554;11.812;2023-08-17T10:16:36;10.45;;;9.18;;
71671;SDS011;67659;45.554;11.812;2023-08-17T10:22:12;11.60;;;9.13;;
71671;SDS011;67659;45.554;11.812;2023-08-17T10:24:42;14.95;;;9.70;;
71671;SDS011;67659;45.554;11.812;2023-08-17T10:27:09;10.48;;;9.38;;
71671;SDS011;67659;45.554;11.812;2023-08-17T10:29:36;12.45;;;8.75;;
71671;SDS011;67659;45.554;11.812;2023-08-17T10:32:05;13.48;;;9.23;;
71671;SDS011;67659;45.554;11.812;2023-08-17T10:34:32;12.50;;;9.00;;
71671;SDS011;67659;45.554;11.812;2023-08-17T10:37:00;11.98;;;9.40;;
71671;SDS011;67659;45.554;11.812;2023-08-17T10:39:27;11.40;;;9.18;;
71671;SDS011;67659;45.554;11.812;2023-08-17T10:41:54;10.40;;;9.30;;
71671;SDS011;67659;45.554;11.812;2023-08-17T10:44:39;11.63;;;9.15;;
71671;SDS011;67659;45.554;11.812;2023-08-17T10:47:31;11.27;;;8.97;;
71671;SDS011;67659;45.554;11.812;2023-08-17T10:50:03;12.07;;;9.00;;
71671;SDS011;67659;45.554;11.812;2023-08-17T10:52:31;10.65;;;9.15;;
71671;SDS011;67659;45.554;11.812;2023-08-17T10:54:59;11.27;;;8.95;;
71671;SDS011;67659;45.554;11.812;2023-08-17T11:00:18;10.40;;;9.30;;
71671;SDS011;67659;45.554;11.812;2023-08-17T11:05:40;11.60;;;9.73;;
71671;SDS011;67659;45.554;11.812;2023-08-17T11:08:06;12.45;;;9.40;;
71671;SDS011;67659;45.554;11.812;2023-08-17T11:10:34;10.75;;;9.40;;
71671;SDS011;67659;45.554;11.812;2023-08-17T11:13:01;11.10;;;9.20;;
71671;SDS011;67659;45.554;11.812;2023-08-17T11:15:45;11.40;;;8.85;;
71671;SDS011;67659;45.554;11.812;2023-08-17T11:18:13;10.63;;;9.43;;
71671;SDS011;67659;45.554;11.812;2023-08-17T11:20:40;12.52;;;9.40;;
71671;SDS011;67659;45.554;11.812;2023-08-17T11:23:07;10.40;;;9.27;;
71671;SDS011;67659;45.554;11.812;2023-08-17T11:25:34;10.93;;;8.97;;
71671;SDS011;67659;45.554;11.812;2023-08-17T11:28:00;11.27;;;9.50;;
71671;SDS011;67659;45.554;11.812;2023-08-17T11:30:27;11.32;;;9.55;;
71671;SDS011;67659;45.554;11.812;2023-08-17T11:32:54;10.05;;;8.93;;
71671;SDS011;67659;45.554;11.812;2023-08-17T11:35:20;10.80;;;9.35;;
71671;SDS011;67659;45.554;11.812;2023-08-17T11:37:47;11.17;;;9.60;;
71671;SDS011;67659;45.554;11.812;2023-08-17T11:40:15;14.32;;;9.43;;
71671;SDS011;67659;45.554;11.812;2023-08-17T11:42:42;11.25;;;9.70;;
71671;SDS011;67659;45.554;11.812;2023-08-17T11:45:08;12.60;;;9.70;;
71671;SDS011;67659;45.554;11.812;2023-08-17T11:47:39;12.60;;;9.90;;
71671;SDS011;67659;45.554;11.812;2023-08-17T11:50:09;11.23;;;9.57;;
71671;SDS011;67659;45.554;11.812;2023-08-17T11:52:36;12.25;;;9.73;;
71671;SDS011;67659;45.554;11.812;2023-08-17T11:55:03;10.70;;;9.15;;
71671;SDS011;67659;45.554;11.812;2023-08-17T11:57:34;11.25;;;9.52;;
71671;SDS011;67659;45.554;11.812;2023-08-17T12:00:01;11.45;;;10.20;;
71671;SDS011;67659;45.554;11.812;2023-08-17T12:02:31;11.50;;;10.17;;
71671;SDS011;67659;45.554;11.812;2023-08-17T12:04:58;11.10;;;9.55;;
71671;SDS011;67659;45.554;11.812;2023-08-17T12:07:31;12.55;;;9.40;;
71671;SDS011;67659;45.554;11.812;2023-08-17T12:09:57;11.10;;;10.00;;
71671;SDS011;67659;45.554;11.812;2023-08-17T12:12:23;11.18;;;9.98;;
71671;SDS011;67659;45.554;11.812;2023-08-17T12:14:49;12.70;;;9.53;;
71671;SDS011;67659;45.554;11.812;2023-08-17T12:17:18;10.70;;;9.38;;
71671;SDS011;67659;45.554;11.812;2023-08-17T12:19:44;12.27;;;9.82;;
71671;SDS011;67659;45.554;11.812;2023-08-17T12:22:15;11.48;;;9.63;;
71671;SDS011;67659;45.554;11.812;2023-08-17T12:24:42;12.57;;;9.70;;
71671;SDS011;67659;45.554;11.812;2023-08-17T12:27:09;10.70;;;9.55;;
71671;SDS011;67659;45.554;11.812;2023-08-17T12:29:47;11.95;;;9.50;;
71671;SDS011;67659;45.554;11.812;2023-08-17T12:32:16;11.05;;;9.73;;
71671;SDS011;67659;45.554;11.812;2023-08-17T12:34:43;11.02;;;9.93;;
71671;SDS011;67659;45.554;11.812;2023-08-17T12:37:10;11.10;;;9.90;;
71671;SDS011;67659;45.554;11.812;2023-08-17T12:39:36;12.88;;;9.82;;
71671;SDS011;67659;45.554;11.812;2023-08-17T12:42:04;11.82;;;9.57;;
71671;SDS011;67659;45.554;11.812;2023-08-17T12:44:30;11.00;;;9.52;;
71671;SDS011;67659;45.554;11.812;2023-08-17T12:46:56;12.90;;;9.77;;
71671;SDS011;67659;45.554;11.812;2023-08-17T12:49:25;11.33;;;9.37;;
71671;SDS011;67659;45.554;11.812;2023-08-17T12:51:51;11.82;;;10.63;;
71671;SDS011;67659;45.554;11.812;2023-08-17T12:54:17;11.35;;;9.27;;
71671;SDS011;67659;45.554;11.812;2023-08-17T12:56:43;13.33;;;10.17;;
71671;SDS011;67659;45.554;11.812;2023-08-17T12:59:10;10.60;;;9.45;;
71671;SDS011;67659;45.554;11.812;2023-08-17T13:01:36;10.50;;;9.40;;
71671;SDS011;67659;45.554;11.812;2023-08-17T13:04:03;11.07;;;9.88;;
71671;SDS011;67659;45.554;11.812;2023-08-17T13:06:29;10.60;;;9.48;;
71671;SDS011;67659;45.554;11.812;2023-08-17T13:08:55;12.43;;;9.30;;
71671;SDS011;67659;45.554;11.812;2023-08-17T13:11:20;12.02;;;9.85;;
71671;SDS011;67659;45.554;11.812;2023-08-17T13:13:46;11.33;;;9.80;;
71671;SDS011;67659;45.554;11.812;2023-08-17T13:16:12;11.73;;;10.20;;
71671;SDS011;67659;45.554;11.812;2023-08-17T13:18:38;11.73;;;10.17;;
71671;SDS011;67659;45.554;11.812;2023-08-17T13:21:03;11.35;;;10.15;;
71671;SDS011;67659;45.554;11.812;2023-08-17T13:23:29;11.93;;;10.00;;
71671;SDS011;67659;45.554;11.812;2023-08-17T13:25:55;11.63;;;10.35;;
71671;SDS011;67659;45.554;11.812;2023-08-17T13:28:21;13.40;;;10.52;;
71671;SDS011;67659;45.554;11.812;2023-08-17T13:30:47;11.40;;;9.90;;
71671;SDS011;67659;45.554;11.812;2023-08-17T13:33:13;14.17;;;10.57;;
71671;SDS011;67659;45.554;11.812;2023-08-17T13:35:38;11.30;;;10.10;;
71671;SDS011;67659;45.554;11.812;2023-08-17T13:38:05;12.37;;;10.13;;
71671;SDS011;67659;45.554;11.812;2023-08-17T13:40:31;11.40;;;9.88;;
71671;SDS011;67659;45.554;11.812;2023-08-17T13:42:57;12.00;;;10.13;;
71671;SDS011;67659;45.554;11.812;2023-08-17T13:45:25;11.88;;;10.35;;
71671;SDS011;67659;45.554;11.812;2023-08-17T13:47:51;11.60;;;10.32;;
71671;SDS011;67659;45.554;11.812;2023-08-17T13:50:17;13.70;;;10.00;;
71671;SDS011;67659;45.554;11.812;2023-08-17T13:52:43;12.73;;;10.63;;
71671;SDS011;67659;45.554;11.812;2023-08-17T13:55:10;12.85;;;10.98;;
71671;SDS011;67659;45.554;11.812;2023-08-17T13:57:36;12.50;;;10.70;;
71671;SDS011;67659;45.554;11.812;2023-08-17T14:00:02;12.67;;;10.93;;
71671;SDS011;67659;45.554;11.812;2023-08-17T14:02:29;12.85;;;11.27;;
71671;SDS011;67659;45.554;11.812;2023-08-17T14:04:55;12.05;;;10.77;;
71671;SDS011;67659;45.554;11.812;2023-08-17T14:07:21;13.47;;;11.00;;
71671;SDS011;67659;45.554;11.812;2023-08-17T14:09:46;11.50;;;9.93;;
71671;SDS011;67659;45.554;11.812;2023-08-17T14:12:12;12.07;;;10.60;;
71671;SDS011;67659;45.554;11.812;2023-08-17T14:14:38;12.33;;;10.43;;
71671;SDS011;67659;45.554;11.812;2023-08-17T14:17:04;12.10;;;10.80;;
71671;SDS011;67659;45.554;11.812;2023-08-17T14:19:30;13.63;;;10.97;;
71671;SDS011;67659;45.554;11.812;2023-08-17T14:21:56;14.60;;;11.25;;
71671;SDS011;67659;45.554;11.812;2023-08-17T14:24:24;13.18;;;11.75;;